createdAt,value
2023-05-23T00:02:35.055Z,17.32
2023-05-23T00:07:26.937Z,17.19
2023-05-23T00:12:19.634Z,17.16
2023-05-23T00:17:12.070Z,17.18
2023-05-23T00:22:04.322Z,17.13
2023-05-23T00:26:56.112Z,17.05
2023-05-23T00:31:47.939Z,17.05
2023-05-23T00:36:41.653Z,17.14
2023-05-23T00:41:33.367Z,17.15
2023-05-23T00:46:26.660Z,16.94
2023-05-23T00:51:18.972Z,16.79
2023-05-23T00:56:12.227Z,16.64
2023-05-23T01:01:04.205Z,16.59
2023-05-23T01:05:56.691Z,16.61
2023-05-23T01:10:49.591Z,16.50
2023-05-23T01:16:07.697Z,16.39
2023-05-23T01:21:17.919Z,16.27
2023-05-23T01:26:19.638Z,16.29
2023-05-23T01:31:12.942Z,16.33
2023-05-23T01:36:06.005Z,16.58
2023-05-23T01:40:57.934Z,16.51
2023-05-23T01:45:52.069Z,16.47
2023-05-23T01:50:48.002Z,16.31
2023-05-23T01:55:42.593Z,16.24
2023-05-23T02:00:34.577Z,16.20
2023-05-23T02:05:27.227Z,16.24
2023-05-23T02:10:19.579Z,16.23
2023-05-23T02:15:11.498Z,16.15
2023-05-23T02:20:04.006Z,16.11
2023-05-23T02:24:55.758Z,16.08
2023-05-23T02:29:47.557Z,16.09
2023-05-23T02:34:40.245Z,16.21
2023-05-23T02:39:32.104Z,16.17
2023-05-23T02:44:23.857Z,16.12
2023-05-23T02:49:15.600Z,15.93
2023-05-23T02:54:07.376Z,15.85
2023-05-23T02:58:59.085Z,15.83
2023-05-23T03:03:50.887Z,15.76
2023-05-23T03:08:43.680Z,15.72
2023-05-23T03:13:36.062Z,15.71
2023-05-23T03:18:27.910Z,15.67
2023-05-23T03:23:19.753Z,15.61
2023-05-23T03:28:14.352Z,15.56
2023-05-23T03:38:12.524Z,15.53
2023-05-23T03:43:06.775Z,15.52
2023-05-23T03:47:59.587Z,15.50
2023-05-23T03:52:51.432Z,15.52
2023-05-23T03:57:43.135Z,15.61
2023-05-23T10:21:19.810Z,25.21
2023-05-23T10:26:11.971Z,26.13
2023-05-23T10:31:04.588Z,26.60
2023-05-23T16:35:38.112Z,21.55
2023-05-23T16:40:29.886Z,21.67
2023-05-23T18:02:06.213Z,19.37
2023-05-23T18:06:57.938Z,19.07
2023-05-23T19:17:48.197Z,18.04
2023-05-23T19:33:24.075Z,17.75
2023-05-23T19:38:15.841Z,17.80
2023-05-23T20:21:13.751Z,17.42
2023-05-23T20:31:21.303Z,17.30
2023-05-23T20:41:20.998Z,17.43
2023-05-23T21:38:16.013Z,17.35
2023-05-23T21:53:20.558Z,16.84
2023-05-23T21:58:12.311Z,16.70
2023-05-23T22:24:26.981Z,16.14
2023-05-23T22:29:18.744Z,16.16
2023-05-23T22:34:10.457Z,16.06
2023-05-23T22:39:04.958Z,16.13
2023-05-23T22:43:57.058Z,15.95
2023-05-23T22:48:49.440Z,15.83
2023-05-23T22:53:41.474Z,15.85
2023-05-23T22:58:33.202Z,15.72
2023-05-23T23:35:27.857Z,15.52
2023-05-23T23:40:19.583Z,15.51
2023-05-23T23:45:11.566Z,15.41
2023-05-23T23:50:04.935Z,15.46
2023-05-23T23:54:56.688Z,15.46
2023-05-23T23:59:48.471Z,15.31
